Time;durP1;ratioP1;P1;durP2;ratioP2;P2;SDS_P1;SDS_P2;PMS_P1;PMS_P2;Temp;Humidity;BMP_temperature;BMP_pressure;BME280_temperature;BME280_humidity;BME280_pressure;Samples;Min_cycle;Max_cycle;Signal;HPM_P1;HPM_P2
2023/01/04 00:01:00;;;;;;;0.60;0.60;;;;;;;;;;4975548;28;20042;-76
2023/01/04 00:03:26;;;;;;;1.47;0.80;;;;;;;;;;4959476;28;20109;-76
2023/01/04 00:05:52;;;;;;;1.07;0.70;;;;;;;;;;4942709;28;20449;-75
2023/01/04 00:08:18;;;;;;;0.80;0.80;;;;;;;;;;4958630;28;20047;-75
2023/01/04 00:10:44;;;;;;;1.90;1.00;;;;;;;;;;4958888;28;20047;-74
2023/01/04 00:13:09;;;;;;;0.70;0.70;;;;;;;;;;4958928;28;20109;-76
2023/01/04 00:15:35;;;;;;;1.13;0.80;;;;;;;;;;4958993;28;20093;-76
2023/01/04 00:18:01;;;;;;;0.60;0.60;;;;;;;;;;4958890;28;20500;-76
2023/01/04 00:20:26;;;;;;;0.73;0.73;;;;;;;;;;4974763;28;20043;-76
2023/01/04 00:22:52;;;;;;;1.83;0.67;;;;;;;;;;4958378;28;20547;-76
2023/01/04 00:25:18;;;;;;;0.73;0.70;;;;;;;;;;4974662;28;20038;-77
2023/01/04 00:27:43;;;;;;;1.50;0.70;;;;;;;;;;4958678;28;20104;-76
2023/01/04 00:30:09;;;;;;;0.60;0.60;;;;;;;;;;4958658;28;20051;-74
2023/01/04 00:32:35;;;;;;;1.93;0.70;;;;;;;;;;4974462;28;20054;-75
2023/01/04 00:35:01;;;;;;;1.40;0.80;;;;;;;;;;4958579;28;20031;-74
2023/01/04 00:37:29;;;;;;;0.70;0.70;;;;;;;;;;4974448;28;20074;-75
2023/01/04 00:39:55;;;;;;;1.37;1.00;;;;;;;;;;4958176;28;20035;-75
2023/01/04 00:42:20;;;;;;;1.13;0.60;;;;;;;;;;4958140;28;20045;-76
2023/01/04 00:44:46;;;;;;;0.90;0.77;;;;;;;;;;4958394;28;20125;-75
2023/01/04 00:47:11;;;;;;;0.70;0.70;;;;;;;;;;4975161;28;20039;-76
2023/01/04 00:49:37;;;;;;;0.70;0.70;;;;;;;;;;4974441;28;20142;-76
2023/01/04 00:52:03;;;;;;;0.80;0.80;;;;;;;;;;4959240;28;20086;-76
2023/01/04 00:54:28;;;;;;;0.70;0.70;;;;;;;;;;4958374;28;20453;-76
2023/01/04 00:56:54;;;;;;;1.60;0.87;;;;;;;;;;4942271;28;20043;-75
2023/01/04 00:59:20;;;;;;;0.70;0.70;;;;;;;;;;4957961;28;20043;-74
2023/01/04 01:01:46;;;;;;;0.70;0.70;;;;;;;;;;4973627;28;20030;-75
2023/01/04 01:04:13;;;;;;;0.97;0.60;;;;;;;;;;4958148;28;20126;-74
2023/01/04 01:06:39;;;;;;;2.40;0.70;;;;;;;;;;4957580;28;20035;-73
2023/01/04 01:09:05;;;;;;;0.70;0.70;;;;;;;;;;4971961;28;20070;-73
2023/01/04 01:11:32;;;;;;;0.77;0.77;;;;;;;;;;4955561;28;20154;-72
2023/01/04 01:13:57;;;;;;;1.53;0.70;;;;;;;;;;4939457;28;20130;-72
2023/01/04 01:16:24;;;;;;;0.83;0.70;;;;;;;;;;4955106;28;20563;-72
2023/01/04 01:18:49;;;;;;;0.70;0.70;;;;;;;;;;4971277;28;20034;-72
2023/01/04 01:21:16;;;;;;;0.80;0.80;;;;;;;;;;4955547;28;20169;-73
2023/01/04 01:23:42;;;;;;;0.97;0.90;;;;;;;;;;4972681;28;20374;-73
2023/01/04 01:26:12;;;;;;;1.50;1.40;;;;;;;;;;4973335;28;20044;-72
2023/01/04 01:28:37;;;;;;;2.33;1.90;;;;;;;;;;4973157;28;20035;-72
2023/01/04 01:31:07;;;;;;;2.00;1.77;;;;;;;;;;4973198;28;20042;-72
2023/01/04 01:33:34;;;;;;;2.30;2.03;;;;;;;;;;4972963;28;20041;-73
2023/01/04 01:36:00;;;;;;;3.90;2.27;;;;;;;;;;4973197;28;20041;-74
2023/01/04 01:38:26;;;;;;;3.30;2.30;;;;;;;;;;4957015;28;20101;-72
2023/01/04 01:40:52;;;;;;;2.73;2.20;;;;;;;;;;4956756;28;20039;-73
2023/01/04 01:43:18;;;;;;;2.63;2.30;;;;;;;;;;4973411;28;20039;-73
2023/01/04 01:45:45;;;;;;;2.80;2.20;;;;;;;;;;4973378;28;20042;-72
2023/01/04 01:48:13;;;;;;;3.87;2.50;;;;;;;;;;4941069;28;20031;-73
2023/01/04 01:50:53;;;;;;;2.33;1.93;;;;;;;;;;4972764;28;20050;-73
2023/01/04 01:53:19;;;;;;;3.03;2.20;;;;;;;;;;4956686;28;20528;-73
2023/01/04 01:55:46;;;;;;;3.47;2.40;;;;;;;;;;4957272;28;20039;-72
2023/01/04 01:58:15;;;;;;;5.47;2.30;;;;;;;;;;4973619;28;20098;-72
2023/01/04 02:00:41;;;;;;;2.87;2.27;;;;;;;;;;4972926;28;20381;-72
2023/01/04 02:03:17;;;;;;;2.73;2.20;;;;;;;;;;4940642;28;20201;-72
2023/01/04 02:05:44;;;;;;;3.70;2.30;;;;;;;;;;4956796;28;20049;-73
2023/01/04 02:08:10;;;;;;;3.87;2.73;;;;;;;;;;4956596;28;20035;-73
2023/01/04 02:10:36;;;;;;;4.40;2.50;;;;;;;;;;4956423;28;20433;-73
2023/01/04 02:13:04;;;;;;;2.57;2.33;;;;;;;;;;4956443;28;20157;-74
2023/01/04 02:15:34;;;;;;;3.30;2.30;;;;;;;;;;4972592;28;20479;-73
2023/01/04 02:18:08;;;;;;;2.57;2.30;;;;;;;;;;4972606;28;20042;-74
2023/01/04 02:20:34;;;;;;;3.63;2.40;;;;;;;;;;4956533;28;20039;-73
2023/01/04 02:23:12;;;;;;;2.77;2.07;;;;;;;;;;4973290;28;20469;-74
2023/01/04 02:25:56;;;;;;;3.80;2.50;;;;;;;;;;4973734;28;20704;-73
2023/01/04 02:28:28;;;;;;;3.33;2.60;;;;;;;;;;4940776;28;20046;-73
2023/01/04 02:30:59;;;;;;;3.50;2.30;;;;;;;;;;4956033;28;20279;-73
2023/01/04 02:33:44;;;;;;;3.33;2.57;;;;;;;;;;4972509;28;20042;-74
2023/01/04 02:36:23;;;;;;;3.90;2.60;;;;;;;;;;4955906;28;20101;-73
2023/01/04 02:39:01;;;;;;;4.30;2.90;;;;;;;;;;4956335;28;20058;-73
2023/01/04 02:41:30;;;;;;;4.10;2.63;;;;;;;;;;4956198;28;20035;-73
2023/01/04 02:47:04;;;;;;;3.13;2.03;;;;;;;;;;4973013;28;20046;-72
2023/01/04 02:52:15;;;;;;;4.13;2.63;;;;;;;;;;4955900;28;20081;-72
2023/01/04 02:54:41;;;;;;;2.90;1.97;;;;;;;;;;4956228;28;20654;-72
2023/01/04 02:57:06;;;;;;;2.20;2.00;;;;;;;;;;4972075;28;20057;-73
2023/01/04 02:59:31;;;;;;;2.90;2.00;;;;;;;;;;4971958;28;20117;-72
2023/01/04 03:07:50;;;;;;;4.20;2.27;;;;;;;;;;4973171;28;20043;-73
2023/01/04 03:10:22;;;;;;;3.43;2.40;;;;;;;;;;4972237;28;20047;-73
2023/01/04 03:13:04;;;;;;;3.53;2.50;;;;;;;;;;4958436;28;20043;-73
2023/01/04 03:15:32;;;;;;;3.90;2.20;;;;;;;;;;4975743;28;20105;-73
2023/01/04 03:18:04;;;;;;;3.90;2.77;;;;;;;;;;4959091;28;20035;-74
2023/01/04 03:20:30;;;;;;;2.37;2.13;;;;;;;;;;4959425;28;20039;-72
2023/01/04 03:37:08;;;;;;;3.60;2.70;;;;;;;;;;4974808;28;20058;-73
2023/01/04 03:48:42;;;;;;;4.83;3.00;;;;;;;;;;4958851;28;20105;-73
2023/01/04 03:51:21;;;;;;;5.17;3.50;;;;;;;;;;4974901;28;20469;-73
2023/01/04 03:53:58;;;;;;;3.37;3.03;;;;;;;;;;4974904;28;20046;-73
2023/01/04 03:56:25;;;;;;;4.27;2.93;;;;;;;;;;4958302;28;20038;-71
2023/01/04 03:58:51;;;;;;;2.70;2.50;;;;;;;;;;4974743;28;20039;-73
2023/01/04 04:01:18;;;;;;;10.17;3.47;;;;;;;;;;4975576;28;20421;-73
2023/01/04 04:09:11;;;;;;;2.73;2.47;;;;;;;;;;4974358;28;20453;-73
2023/01/04 04:11:37;;;;;;;3.73;2.57;;;;;;;;;;4958378;28;20056;-74
2023/01/04 04:14:03;;;;;;;2.73;2.40;;;;;;;;;;4942449;28;20042;-74
2023/01/04 04:16:28;;;;;;;2.73;2.30;;;;;;;;;;4958233;28;20073;-73
2023/01/04 04:18:54;;;;;;;5.00;2.30;;;;;;;;;;4974526;28;20053;-73
2023/01/04 04:21:19;;;;;;;3.30;2.30;;;;;;;;;;4958332;28;20034;-74
2023/01/04 04:23:45;;;;;;;3.27;1.87;;;;;;;;;;4974550;28;20042;-73
2023/01/04 04:26:10;;;;;;;3.00;1.93;;;;;;;;;;4958172;28;20429;-74
2023/01/04 04:28:36;;;;;;;2.50;2.00;;;;;;;;;;4974940;28;20070;-73
2023/01/04 04:31:02;;;;;;;2.73;2.33;;;;;;;;;;4974252;28;20047;-74
2023/01/04 04:33:27;;;;;;;3.00;2.40;;;;;;;;;;4975387;28;20035;-73
2023/01/04 04:35:53;;;;;;;4.33;2.27;;;;;;;;;;4958316;28;20039;-74
2023/01/04 04:38:20;;;;;;;2.93;1.90;;;;;;;;;;4957795;28;20054;-74
2023/01/04 04:43:31;;;;;;;4.53;2.30;;;;;;;;;;4957856;28;20058;-74
2023/01/04 04:45:56;;;;;;;6.17;2.23;;;;;;;;;;4958125;28;20038;-73
2023/01/04 04:48:24;;;;;;;3.63;2.30;;;;;;;;;;4973985;28;20193;-74
2023/01/04 04:50:50;;;;;;;3.20;2.40;;;;;;;;;;4957406;28;20408;-73
2023/01/04 04:53:15;;;;;;;3.23;2.30;;;;;;;;;;4973779;28;20137;-73
2023/01/04 04:55:41;;;;;;;4.80;2.67;;;;;;;;;;4941637;28;20034;-74
2023/01/04 04:58:07;;;;;;;2.93;2.27;;;;;;;;;;4957282;28;20046;-74
2023/01/04 05:00:33;;;;;;;3.63;2.70;;;;;;;;;;4957775;28;20039;-73
2023/01/04 05:02:59;;;;;;;3.53;2.47;;;;;;;;;;4973619;28;20039;-73
2023/01/04 05:05:25;;;;;;;3.37;2.73;;;;;;;;;;4957631;28;20129;-74
2023/01/04 05:07:51;;;;;;;3.63;2.50;;;;;;;;;;4957263;28;20134;-73
2023/01/04 05:10:16;;;;;;;3.83;2.83;;;;;;;;;;4973623;28;20051;-74
2023/01/04 05:13:00;;;;;;;4.63;2.90;;;;;;;;;;4973323;28;20081;-74
2023/01/04 05:15:31;;;;;;;3.87;2.60;;;;;;;;;;4974094;28;20097;-74
2023/01/04 05:17:57;;;;;;;3.47;2.60;;;;;;;;;;4957613;28;20069;-74
2023/01/04 05:20:23;;;;;;;4.53;2.30;;;;;;;;;;4973618;28;20496;-74
2023/01/04 05:22:48;;;;;;;3.80;2.57;;;;;;;;;;4973387;28;20097;-75
2023/01/04 05:25:14;;;;;;;3.57;2.47;;;;;;;;;;4973436;28;20041;-74
2023/01/04 05:27:39;;;;;;;3.83;2.30;;;;;;;;;;4957288;28;20457;-74
2023/01/04 05:32:50;;;;;;;6.40;3.20;;;;;;;;;;4974234;28;20468;-74
2023/01/04 05:35:15;;;;;;;7.03;3.07;;;;;;;;;;4956708;28;20050;-73
2023/01/04 05:37:41;;;;;;;6.03;3.23;;;;;;;;;;4957093;28;20043;-73
2023/01/04 05:40:07;;;;;;;4.93;2.80;;;;;;;;;;4957009;28;20034;-73
2023/01/04 05:42:33;;;;;;;5.77;3.00;;;;;;;;;;4973234;28;20465;-75
2023/01/04 05:44:58;;;;;;;4.90;2.30;;;;;;;;;;4974756;28;20385;-74
2023/01/04 05:47:24;;;;;;;3.70;2.57;;;;;;;;;;4972892;28;20465;-74
2023/01/04 05:49:50;;;;;;;5.70;2.80;;;;;;;;;;4956672;28;20051;-74
2023/01/04 05:52:16;;;;;;;5.90;2.57;;;;;;;;;;4972720;28;20151;-73
2023/01/04 05:54:42;;;;;;;3.60;2.30;;;;;;;;;;4956591;28;20104;-73
2023/01/04 05:57:07;;;;;;;3.90;2.67;;;;;;;;;;4956581;28;20057;-73
2023/01/04 05:59:33;;;;;;;2.87;2.10;;;;;;;;;;4972628;28;20100;-73
2023/01/04 06:01:59;;;;;;;5.07;2.47;;;;;;;;;;4972603;28;20045;-75
2023/01/04 06:04:24;;;;;;;6.60;2.97;;;;;;;;;;4956447;28;20442;-74
2023/01/04 06:06:50;;;;;;;4.70;2.60;;;;;;;;;;4972528;28;20386;-74
2023/01/04 06:09:15;;;;;;;4.53;3.10;;;;;;;;;;4956411;28;20034;-73
2023/01/04 06:11:41;;;;;;;5.40;2.40;;;;;;;;;;4972256;28;20064;-73
2023/01/04 06:14:07;;;;;;;5.43;2.40;;;;;;;;;;4971992;28;20039;-75
2023/01/04 06:16:32;;;;;;;2.90;2.10;;;;;;;;;;4956273;28;20050;-73
2023/01/04 06:18:58;;;;;;;4.80;2.10;;;;;;;;;;4956645;28;20093;-74
2023/01/04 06:21:24;;;;;;;3.40;2.20;;;;;;;;;;4973099;28;20038;-74
2023/01/04 06:23:50;;;;;;;2.70;2.10;;;;;;;;;;4956046;28;20507;-73
2023/01/04 06:26:16;;;;;;;3.63;2.10;;;;;;;;;;4940013;28;20034;-74
2023/01/04 06:28:41;;;;;;;2.33;1.90;;;;;;;;;;4956086;28;20461;-74
2023/01/04 06:31:07;;;;;;;2.13;1.93;;;;;;;;;;4973336;28;20081;-74
2023/01/04 06:33:33;;;;;;;3.20;1.90;;;;;;;;;;4973241;28;20042;-74
2023/01/04 06:35:59;;;;;;;2.83;2.00;;;;;;;;;;4956315;28;20126;-77
2023/01/04 06:38:25;;;;;;;2.23;1.80;;;;;;;;;;4935944;29;20130;-75
2023/01/04 06:40:51;;;;;;;2.80;2.00;;;;;;;;;;4936729;29;20078;-75
2023/01/04 06:43:17;;;;;;;3.13;2.17;;;;;;;;;;4953976;28;20043;-76
2023/01/04 06:45:43;;;;;;;2.03;1.60;;;;;;;;;;4920607;29;20036;-75
2023/01/04 06:48:08;;;;;;;2.77;2.07;;;;;;;;;;4920706;29;20474;-75
2023/01/04 06:50:34;;;;;;;4.87;2.00;;;;;;;;;;4921273;29;20051;-75
2023/01/04 06:52:59;;;;;;;3.00;1.90;;;;;;;;;;4937050;29;20197;-74
2023/01/04 06:55:25;;;;;;;4.03;1.80;;;;;;;;;;4920955;29;20474;-74
2023/01/04 06:57:51;;;;;;;2.63;1.80;;;;;;;;;;4936835;29;20039;-74
2023/01/04 07:00:17;;;;;;;4.90;2.20;;;;;;;;;;4936548;29;20046;-73
2023/01/04 07:02:42;;;;;;;4.73;2.30;;;;;;;;;;4920831;29;20039;-74
2023/01/04 07:05:08;;;;;;;3.63;2.23;;;;;;;;;;4920859;29;20046;-73
2023/01/04 07:07:34;;;;;;;3.37;2.07;;;;;;;;;;4936918;29;20097;-76
2023/01/04 07:10:00;;;;;;;2.70;2.20;;;;;;;;;;4921101;29;20047;-74
2023/01/04 07:12:28;;;;;;;2.80;2.47;;;;;;;;;;4921615;29;20470;-73
2023/01/04 07:14:54;;;;;;;3.10;2.10;;;;;;;;;;4936700;29;20031;-73
2023/01/04 07:17:20;;;;;;;2.73;2.33;;;;;;;;;;4920806;29;20043;-76
2023/01/04 07:19:46;;;;;;;3.00;1.80;;;;;;;;;;4921028;29;20039;-73
2023/01/04 07:22:11;;;;;;;2.83;2.40;;;;;;;;;;4920935;29;20133;-72
2023/01/04 07:24:37;;;;;;;4.77;2.00;;;;;;;;;;4936985;29;20087;-73
2023/01/04 07:27:03;;;;;;;3.10;2.27;;;;;;;;;;4936823;29;20460;-73
2023/01/04 07:29:28;;;;;;;6.97;3.67;;;;;;;;;;4952449;29;20045;-74
2023/01/04 07:31:54;;;;;;;3.00;2.37;;;;;;;;;;4936420;29;20120;-74
2023/01/04 07:34:24;;;;;;;2.90;2.03;;;;;;;;;;4920643;29;20027;-72
2023/01/04 07:36:50;;;;;;;2.70;2.00;;;;;;;;;;4936546;29;20134;-73
2023/01/04 07:39:16;;;;;;;2.80;2.00;;;;;;;;;;4936683;29;20129;-73
2023/01/04 07:41:43;;;;;;;2.67;1.97;;;;;;;;;;4953736;28;20046;-71
2023/01/04 07:44:09;;;;;;;4.63;2.30;;;;;;;;;;4953455;28;20039;-70
2023/01/04 07:46:36;;;;;;;3.07;2.20;;;;;;;;;;4952455;29;20050;-72
2023/01/04 07:49:03;;;;;;;3.83;2.40;;;;;;;;;;4937179;29;20066;-77
2023/01/04 07:51:29;;;;;;;4.77;2.00;;;;;;;;;;4952599;29;20139;-75
2023/01/04 07:53:55;;;;;;;2.63;1.80;;;;;;;;;;4952512;29;20490;-76
2023/01/04 07:56:20;;;;;;;2.47;1.93;;;;;;;;;;4952953;29;20074;-77
2023/01/04 07:58:47;;;;;;;2.50;2.00;;;;;;;;;;4954960;28;20039;-76
2023/01/04 08:01:17;;;;;;;3.00;2.20;;;;;;;;;;4924499;29;20039;-77
2023/01/04 08:03:44;;;;;;;3.90;2.63;;;;;;;;;;4924725;29;20047;-68
2023/01/04 08:06:10;;;;;;;3.73;2.43;;;;;;;;;;4956044;29;20102;-69
2023/01/04 08:08:36;;;;;;;3.40;2.30;;;;;;;;;;4924096;29;20042;-69
2023/01/04 08:11:02;;;;;;;3.73;2.03;;;;;;;;;;4939608;29;20054;-69
2023/01/04 08:13:28;;;;;;;3.47;2.50;;;;;;;;;;4955647;29;21001;-68
2023/01/04 08:15:54;;;;;;;2.93;2.40;;;;;;;;;;4939565;29;20041;-68
2023/01/04 08:18:20;;;;;;;2.83;2.10;;;;;;;;;;4955530;29;20055;-68
2023/01/04 08:20:45;;;;;;;3.50;2.20;;;;;;;;;;4939808;29;20102;-68
2023/01/04 08:23:11;;;;;;;2.73;2.20;;;;;;;;;;4955441;29;20119;-68
2023/01/04 08:25:36;;;;;;;5.27;2.10;;;;;;;;;;4956059;29;20039;-69
2023/01/04 08:28:02;;;;;;;4.27;2.20;;;;;;;;;;4956409;28;20039;-67
2023/01/04 08:30:27;;;;;;;2.90;2.30;;;;;;;;;;4955236;29;20102;-69
2023/01/04 08:32:53;;;;;;;3.43;2.40;;;;;;;;;;4939364;29;20118;-69
2023/01/04 08:35:19;;;;;;;4.63;2.20;;;;;;;;;;4939081;29;20031;-70
2023/01/04 08:37:45;;;;;;;5.20;2.50;;;;;;;;;;4955928;28;20044;-68
2023/01/04 08:40:10;;;;;;;4.17;2.53;;;;;;;;;;4959962;28;20469;-70
2023/01/04 08:42:36;;;;;;;3.73;2.77;;;;;;;;;;4958126;28;20039;-69
2023/01/04 08:45:02;;;;;;;3.87;2.90;;;;;;;;;;4957786;28;20486;-67
2023/01/04 08:47:30;;;;;;;3.40;2.47;;;;;;;;;;4980579;28;20141;-68
2023/01/04 08:49:56;;;;;;;4.97;3.07;;;;;;;;;;4982243;28;20129;-67
2023/01/04 08:52:22;;;;;;;3.47;2.60;;;;;;;;;;4988093;28;20058;-69
2023/01/04 08:54:48;;;;;;;3.87;2.73;;;;;;;;;;4977222;28;20034;-68
2023/01/04 08:57:14;;;;;;;5.80;3.10;;;;;;;;;;4993089;28;20113;-67
2023/01/04 08:59:40;;;;;;;5.27;2.93;;;;;;;;;;4977185;28;20394;-73
2023/01/04 09:02:20;;;;;;;4.53;3.30;;;;;;;;;;4977509;28;20042;-66
2023/01/04 09:04:45;;;;;;;5.37;3.07;;;;;;;;;;4977685;28;20133;-65
2023/01/04 09:07:11;;;;;;;6.13;3.87;;;;;;;;;;4993381;28;20124;-67
2023/01/04 09:09:37;;;;;;;5.80;3.80;;;;;;;;;;4993837;28;20107;-65
2023/01/04 09:12:02;;;;;;;8.33;4.20;;;;;;;;;;4976821;28;20038;-65
2023/01/04 09:14:28;;;;;;;5.13;3.63;;;;;;;;;;4988468;28;20026;-68
2023/01/04 09:16:54;;;;;;;6.37;4.30;;;;;;;;;;4950802;28;20049;-66
2023/01/04 09:19:19;;;;;;;7.00;4.00;;;;;;;;;;4981360;28;20062;-66
2023/01/04 09:21:45;;;;;;;8.13;4.47;;;;;;;;;;4966115;28;20034;-68
2023/01/04 09:24:12;;;;;;;8.27;4.70;;;;;;;;;;4950808;28;20355;-66
2023/01/04 09:26:38;;;;;;;9.43;4.30;;;;;;;;;;4979755;28;20039;-66
2023/01/04 09:29:05;;;;;;;10.37;5.20;;;;;;;;;;4983135;28;20030;-65
2023/01/04 09:31:31;;;;;;;7.97;5.40;;;;;;;;;;4966432;28;20400;-67
2023/01/04 09:33:57;;;;;;;10.53;5.70;;;;;;;;;;4963762;28;20023;-69
2023/01/04 09:36:23;;;;;;;9.10;5.40;;;;;;;;;;4958526;28;20041;-67
2023/01/04 09:38:50;;;;;;;9.77;5.73;;;;;;;;;;4972703;28;20165;-67
2023/01/04 09:41:16;;;;;;;8.93;5.53;;;;;;;;;;4973242;28;20088;-66
2023/01/04 09:43:42;;;;;;;10.83;5.80;;;;;;;;;;4949254;28;20373;-72
2023/01/04 09:46:09;;;;;;;8.73;5.60;;;;;;;;;;4980317;28;20137;-67
2023/01/04 09:48:41;;;;;;;9.70;5.87;;;;;;;;;;4962157;28;20455;-66
2023/01/04 09:51:11;;;;;;;10.67;6.43;;;;;;;;;;4992311;28;20073;-67
2023/01/04 09:53:42;;;;;;;11.65;6.22;;;;;;;;;;4976309;28;20054;-66
2023/01/04 09:56:23;;;;;;;10.10;5.30;;;;;;;;;;4977702;28;20094;-67
2023/01/04 09:58:49;;;;;;;12.07;6.25;;;;;;;;;;4940529;28;20070;-68
2023/01/04 10:01:20;;;;;;;11.27;5.90;;;;;;;;;;4940508;28;20042;-67
2023/01/04 10:03:55;;;;;;;11.67;6.57;;;;;;;;;;4941045;28;20085;-70
2023/01/04 10:06:21;;;;;;;10.60;6.33;;;;;;;;;;4956921;28;20161;-67
2023/01/04 10:08:47;;;;;;;12.63;6.50;;;;;;;;;;4940851;28;20062;-67
2023/01/04 10:11:22;;;;;;;10.70;6.90;;;;;;;;;;4972207;28;20074;-69
2023/01/04 10:13:56;;;;;;;9.70;6.10;;;;;;;;;;4940298;28;20046;-67
2023/01/04 10:16:21;;;;;;;9.97;5.40;;;;;;;;;;4972702;28;20043;-69
2023/01/04 10:18:50;;;;;;;8.43;5.40;;;;;;;;;;4940498;28;20101;-69
2023/01/04 10:21:36;;;;;;;11.40;6.40;;;;;;;;;;4956410;28;20201;-70
2023/01/04 10:24:18;;;;;;;8.33;6.00;;;;;;;;;;4940226;28;20112;-74
2023/01/04 10:26:45;;;;;;;9.83;5.70;;;;;;;;;;4940788;28;20061;-74
2023/01/04 10:29:29;;;;;;;10.83;6.50;;;;;;;;;;4941238;28;20062;-72
2023/01/04 10:31:56;;;;;;;10.83;6.17;;;;;;;;;;4940563;28;20489;-72
2023/01/04 10:34:24;;;;;;;9.07;5.43;;;;;;;;;;4940699;28;20089;-71
2023/01/04 10:36:57;;;;;;;9.10;6.07;;;;;;;;;;4940496;28;20141;-71
2023/01/04 10:39:24;;;;;;;9.13;5.83;;;;;;;;;;4956117;28;20034;-71
2023/01/04 10:41:54;;;;;;;8.70;5.77;;;;;;;;;;4940092;28;20046;-66
2023/01/04 10:44:23;;;;;;;9.93;5.80;;;;;;;;;;4972020;28;20461;-67
2023/01/04 10:46:52;;;;;;;12.13;6.33;;;;;;;;;;4955975;28;20077;-69
2023/01/04 10:49:22;;;;;;;8.93;5.83;;;;;;;;;;4956251;28;20042;-70
2023/01/04 10:52:01;;;;;;;11.07;5.90;;;;;;;;;;4939545;28;20081;-69
2023/01/04 10:54:34;;;;;;;11.50;5.70;;;;;;;;;;4939897;28;20043;-68
2023/01/04 10:57:07;;;;;;;22.30;9.57;;;;;;;;;;4955900;28;20492;-68
2023/01/04 10:59:34;;;;;;;10.30;6.10;;;;;;;;;;4956234;28;20397;-66
2023/01/04 11:02:05;;;;;;;10.63;6.63;;;;;;;;;;4955964;28;20064;-66
2023/01/04 11:05:00;;;;;;;13.70;6.37;;;;;;;;;;4941731;28;20042;-66
2023/01/04 11:07:32;;;;;;;15.00;6.90;;;;;;;;;;4948604;28;20042;-67
2023/01/04 11:10:09;;;;;;;15.43;7.83;;;;;;;;;;4978080;28;20050;-67
2023/01/04 11:12:35;;;;;;;14.33;7.90;;;;;;;;;;4936897;29;20117;-65
2023/01/04 11:15:00;;;;;;;14.73;7.60;;;;;;;;;;4921279;29;20495;-65
2023/01/04 11:17:27;;;;;;;12.20;7.53;;;;;;;;;;4968859;28;20035;-66
2023/01/04 11:19:53;;;;;;;12.67;6.20;;;;;;;;;;4952618;29;20470;-65
2023/01/04 11:22:23;;;;;;;7.07;5.13;;;;;;;;;;4920713;29;20039;-65
2023/01/04 11:24:51;;;;;;;10.02;5.30;;;;;;;;;;4921078;29;20185;-65
2023/01/04 11:27:18;;;;;;;10.77;5.93;;;;;;;;;;4921029;29;20043;-64
2023/01/04 11:29:50;;;;;;;9.97;5.67;;;;;;;;;;4953117;29;20094;-65
2023/01/04 11:32:20;;;;;;;11.20;5.40;;;;;;;;;;4968894;28;20043;-69
2023/01/04 11:34:47;;;;;;;7.13;4.50;;;;;;;;;;4962273;28;20033;-65
2023/01/04 11:37:22;;;;;;;8.47;4.93;;;;;;;;;;4967915;28;20042;-66
2023/01/04 11:39:47;;;;;;;10.63;5.43;;;;;;;;;;4967708;28;20096;-66
2023/01/04 11:42:18;;;;;;;8.80;4.90;;;;;;;;;;4959909;28;20500;-66
2023/01/04 11:44:56;;;;;;;11.48;5.72;;;;;;;;;;4974032;28;20039;-67
2023/01/04 11:47:23;;;;;;;8.07;5.10;;;;;;;;;;4973340;28;20677;-65
2023/01/04 11:49:49;;;;;;;9.40;5.13;;;;;;;;;;4957459;28;20465;-70
2023/01/04 11:52:26;;;;;;;8.73;5.10;;;;;;;;;;4958306;28;20113;-66
2023/01/04 11:54:52;;;;;;;8.77;4.33;;;;;;;;;;4957423;28;20030;-66
2023/01/04 11:57:18;;;;;;;6.43;4.30;;;;;;;;;;4959011;28;20055;-66
2023/01/04 11:59:44;;;;;;;9.77;4.73;;;;;;;;;;4943195;28;20046;-65
2023/01/04 12:02:18;;;;;;;7.60;4.40;;;;;;;;;;4958468;28;20045;-65
2023/01/04 12:04:44;;;;;;;7.80;4.50;;;;;;;;;;4958013;28;20169;-66
2023/01/04 12:07:24;;;;;;;10.07;4.90;;;;;;;;;;4970944;28;20153;-66
2023/01/04 12:09:50;;;;;;;9.90;5.30;;;;;;;;;;4970967;28;20049;-66
2023/01/04 12:12:15;;;;;;;10.20;5.27;;;;;;;;;;4970438;28;20050;-66
2023/01/04 12:14:44;;;;;;;8.73;4.17;;;;;;;;;;4939563;28;20035;-66
2023/01/04 12:17:12;;;;;;;9.73;5.57;;;;;;;;;;4939407;28;20038;-66
2023/01/04 12:19:40;;;;;;;7.80;4.70;;;;;;;;;;4971857;28;20440;-65
2023/01/04 12:22:16;;;;;;;13.73;6.37;;;;;;;;;;4942730;28;20034;-65
2023/01/04 12:24:44;;;;;;;12.07;6.53;;;;;;;;;;4943261;28;20062;-65
2023/01/04 12:27:12;;;;;;;10.57;4.80;;;;;;;;;;4959118;28;20460;-65
2023/01/04 12:29:43;;;;;;;11.80;4.90;;;;;;;;;;4974871;28;20047;-66
2023/01/04 12:32:08;;;;;;;;;;;;;;;;;;4959767;28;20141;-65
2023/01/04 12:34:39;;;;;;;9.67;5.30;;;;;;;;;;4943074;28;19914;-65
2023/01/04 12:37:05;;;;;;;8.43;3.15;;;;;;;;;;4975005;28;20101;-66
2023/01/04 12:39:40;;;;;;;5.57;3.30;;;;;;;;;;4958361;28;20464;-65
2023/01/04 12:42:05;;;;;;;4.90;3.33;;;;;;;;;;4958548;28;20134;-65
2023/01/04 12:44:37;;;;;;;5.40;3.23;;;;;;;;;;4958216;28;20122;-65
2023/01/04 12:50:07;;;;;;;4.50;3.03;;;;;;;;;;4974138;28;20055;-65
2023/01/04 12:52:34;;;;;;;3.58;2.50;;;;;;;;;;4973898;28;20524;-65
2023/01/04 12:55:17;;;;;;;4.43;2.30;;;;;;;;;;4974165;28;20369;-67
2023/01/04 12:57:42;;;;;;;7.77;2.77;;;;;;;;;;4974025;28;20470;-66
2023/01/04 13:00:14;;;;;;;5.97;2.80;;;;;;;;;;4958051;28;20046;-66
2023/01/04 13:02:50;;;;;;;4.27;2.80;;;;;;;;;;4942115;28;20335;-66
2023/01/04 13:05:15;;;;;;;4.40;2.93;;;;;;;;;;4974529;28;20043;-65
2023/01/04 13:07:41;;;;;;;5.93;2.90;;;;;;;;;;4974026;28;20045;-65
2023/01/04 13:10:16;;;;;;;4.70;2.97;;;;;;;;;;4957559;28;20516;-66
2023/01/04 13:12:58;;;;;;;4.40;2.77;;;;;;;;;;4957937;28;20121;-65
2023/01/04 13:15:32;;;;;;;5.80;3.23;;;;;;;;;;4974631;28;20089;-65
2023/01/04 13:17:57;;;;;;;9.13;4.43;;;;;;;;;;4957612;28;20454;-65
2023/01/04 13:20:24;;;;;;;6.23;3.07;;;;;;;;;;4957751;28;20042;-66
2023/01/04 13:22:54;;;;;;;6.40;2.90;;;;;;;;;;4957874;28;20034;-65
2023/01/04 13:25:21;;;;;;;5.68;2.60;;;;;;;;;;4973989;28;20120;-65
2023/01/04 13:27:57;;;;;;;2.40;2.00;;;;;;;;;;4957788;28;20477;-65
2023/01/04 13:30:36;;;;;;;3.53;1.97;;;;;;;;;;4941433;28;20081;-66
2023/01/04 13:33:09;;;;;;;2.77;1.80;;;;;;;;;;4957391;28;20358;-65
2023/01/04 13:35:35;;;;;;;4.30;2.23;;;;;;;;;;4974448;28;20042;-65
2023/01/04 13:38:00;;;;;;;4.10;1.90;;;;;;;;;;4974449;28;20507;-68
2023/01/04 13:40:26;;;;;;;2.13;1.50;;;;;;;;;;4974267;28;20042;-65
2023/01/04 13:43:17;;;;;;;2.60;1.90;;;;;;;;;;4973767;28;20444;-65
2023/01/04 13:45:43;;;;;;;2.20;1.70;;;;;;;;;;4973025;28;20354;-66
2023/01/04 13:48:13;;;;;;;2.17;1.80;;;;;;;;;;4941246;28;20104;-65
2023/01/04 13:50:42;;;;;;;2.38;2.08;;;;;;;;;;4972893;28;20482;-65
2023/01/04 13:53:19;;;;;;;3.40;1.70;;;;;;;;;;4972159;28;20064;-66
2023/01/04 13:55:48;;;;;;;1.97;1.70;;;;;;;;;;4972569;28;20484;-65
2023/01/04 13:58:17;;;;;;;2.40;1.90;;;;;;;;;;4973689;28;20042;-65
2023/01/04 14:00:52;;;;;;;4.27;1.73;;;;;;;;;;4972144;28;20038;-65
2023/01/04 14:03:17;;;;;;;3.80;1.93;;;;;;;;;;4972129;28;20034;-66
2023/01/04 14:05:47;;;;;;;3.53;1.67;;;;;;;;;;4955972;28;20452;-66
2023/01/04 14:08:17;;;;;;;2.50;1.90;;;;;;;;;;4940069;28;20050;-65
2023/01/04 14:10:43;;;;;;;2.77;1.87;;;;;;;;;;4972167;28;20042;-66
2023/01/04 14:13:13;;;;;;;2.00;1.80;;;;;;;;;;4940429;28;20426;-66
2023/01/04 14:15:38;;;;;;;2.10;1.63;;;;;;;;;;4972296;28;20120;-66
2023/01/04 14:18:04;;;;;;;4.43;2.60;;;;;;;;;;4956502;28;20409;-66
2023/01/04 14:20:29;;;;;;;3.77;1.90;;;;;;;;;;4955986;28;20061;-65
2023/01/04 14:22:56;;;;;;;5.07;2.10;;;;;;;;;;4939845;28;20070;-66
2023/01/04 14:25:40;;;;;;;2.53;1.77;;;;;;;;;;4972329;28;20069;-65
2023/01/04 14:28:21;;;;;;;1.93;1.50;;;;;;;;;;4955636;28;20042;-66
2023/01/04 14:31:02;;;;;;;3.42;2.10;;;;;;;;;;4955780;28;20054;-65
2023/01/04 14:33:32;;;;;;;2.28;2.08;;;;;;;;;;4939566;28;20035;-65
2023/01/04 14:36:01;;;;;;;6.40;2.10;;;;;;;;;;4939861;28;20093;-65
2023/01/04 14:38:27;;;;;;;3.10;2.20;;;;;;;;;;4971767;28;20074;-66
2023/01/04 14:40:52;;;;;;;3.67;2.20;;;;;;;;;;4939967;28;20062;-66
2023/01/04 14:43:32;;;;;;;2.93;2.47;;;;;;;;;;4955730;28;20043;-65
2023/01/04 14:45:57;;;;;;;2.83;2.17;;;;;;;;;;4955796;28;20054;-66
2023/01/04 14:48:23;;;;;;;4.53;2.70;;;;;;;;;;4955828;28;20042;-66
2023/01/04 14:50:49;;;;;;;5.47;2.90;;;;;;;;;;4971296;28;20524;-65
2023/01/04 14:53:17;;;;;;;4.70;2.73;;;;;;;;;;4896942;28;1261095;-65
2023/01/04 14:55:43;;;;;;;7.87;3.23;;;;;;;;;;4940166;28;20031;-66
2023/01/04 14:58:08;;;;;;;4.57;2.70;;;;;;;;;;4940105;28;20047;-67
2023/01/04 15:00:34;;;;;;;4.87;2.97;;;;;;;;;;4971966;28;20128;-65
2023/01/04 15:03:00;;;;;;;6.77;3.20;;;;;;;;;;4956007;28;20038;-65
2023/01/04 15:05:25;;;;;;;7.33;2.90;;;;;;;;;;4956276;28;20034;-65
2023/01/04 15:07:51;;;;;;;6.83;3.90;;;;;;;;;;4940907;28;20465;-65
2023/01/04 15:10:21;;;;;;;7.17;3.00;;;;;;;;;;4960024;28;20050;-65
2023/01/04 15:12:47;;;;;;;7.65;3.53;;;;;;;;;;4960142;28;20053;-66
2023/01/04 15:15:12;;;;;;;5.93;3.30;;;;;;;;;;4959861;28;20039;-66
2023/01/04 15:17:38;;;;;;;8.27;3.20;;;;;;;;;;4960037;28;20097;-66
2023/01/04 15:20:04;;;;;;;9.70;3.40;;;;;;;;;;4959591;28;20050;-66
2023/01/04 15:22:30;;;;;;;8.37;3.50;;;;;;;;;;4960710;28;20038;-66
2023/01/04 15:24:55;;;;;;;7.47;4.00;;;;;;;;;;4944194;28;20027;-65
2023/01/04 15:27:21;;;;;;;7.67;4.23;;;;;;;;;;4943563;28;20065;-65
2023/01/04 15:29:46;;;;;;;5.80;3.40;;;;;;;;;;4959596;28;20035;-65
2023/01/04 15:32:12;;;;;;;8.03;4.20;;;;;;;;;;4943635;28;20041;-66
2023/01/04 15:34:37;;;;;;;6.50;3.70;;;;;;;;;;4943472;28;20046;-66